sensor_id;sensor_type;location;lat;lon;timestamp;pressure;altitude;pressure_sealevel;temperature;humidity
9415;BME280;4746;35.664;139.738;2023-11-18T00:02:01;98985.22;;;18.60;28.27
9415;BME280;4746;35.664;139.738;2023-11-18T00:04:29;98956.41;;;18.66;28.69
9415;BME280;4746;35.664;139.738;2023-11-18T00:06:57;98977.78;;;18.71;28.29
9415;BME280;4746;35.664;139.738;2023-11-18T00:09:26;98960.41;;;18.73;27.96
9415;BME280;4746;35.664;139.738;2023-11-18T00:11:53;98943.94;;;18.74;27.88
9415;BME280;4746;35.664;139.738;2023-11-18T00:14:21;98997.44;;;18.76;27.73
9415;BME280;4746;35.664;139.738;2023-11-18T00:16:53;98964.41;;;18.80;27.65
9415;BME280;4746;35.664;139.738;2023-11-18T00:19:20;98937.41;;;18.83;27.01
9415;BME280;4746;35.664;139.738;2023-11-18T00:21:52;98925.03;;;18.88;27.23
9415;BME280;4746;35.664;139.738;2023-11-18T00:24:20;98944.81;;;18.91;27.52
9415;BME280;4746;35.664;139.738;2023-11-18T00:26:48;98939.41;;;18.95;26.97
9415;BME280;4746;35.664;139.738;2023-11-18T00:29:15;98952.31;;;18.97;26.96
9415;BME280;4746;35.664;139.738;2023-11-18T00:31:43;98951.34;;;18.99;27.02
9415;BME280;4746;35.664;139.738;2023-11-18T00:34:11;98964.31;;;18.99;27.30
9415;BME280;4746;35.664;139.738;2023-11-18T00:36:39;98936.53;;;19.01;27.42
9415;BME280;4746;35.664;139.738;2023-11-18T00:39:07;98922.50;;;19.05;26.81
9415;BME280;4746;35.664;139.738;2023-11-18T00:41:36;98960.44;;;19.09;25.70
9415;BME280;4746;35.664;139.738;2023-11-18T00:44:04;98926.09;;;19.21;26.20
9415;BME280;4746;35.664;139.738;2023-11-18T00:46:34;98892.16;;;19.24;26.75
9415;BME280;4746;35.664;139.738;2023-11-18T00:49:03;98905.47;;;19.35;26.26
9415;BME280;4746;35.664;139.738;2023-11-18T00:51:32;98871.19;;;19.46;25.28
9415;BME280;4746;35.664;139.738;2023-11-18T00:53:59;98834.09;;;19.59;24.52
9415;BME280;4746;35.664;139.738;2023-11-18T00:56:32;98793.34;;;19.76;24.14
9415;BME280;4746;35.664;139.738;2023-11-18T00:59:00;98782.97;;;19.92;23.68
9415;BME280;4746;35.664;139.738;2023-11-18T01:01:29;98794.09;;;20.11;23.99
9415;BME280;4746;35.664;139.738;2023-11-18T01:03:56;98833.72;;;20.31;23.33
9415;BME280;4746;35.664;139.738;2023-11-18T01:06:27;98836.66;;;20.40;22.74
9415;BME280;4746;35.664;139.738;2023-11-18T01:08:54;98857.91;;;20.48;22.46
9415;BME280;4746;35.664;139.738;2023-11-18T01:11:22;98855.22;;;20.65;21.80
9415;BME280;4746;35.664;139.738;2023-11-18T01:13:50;98852.91;;;20.76;21.97
9415;BME280;4746;35.664;139.738;2023-11-18T01:16:20;98834.84;;;20.89;21.86
9415;BME280;4746;35.664;139.738;2023-11-18T01:18:47;98822.66;;;20.89;21.74
9415;BME280;4746;35.664;139.738;2023-11-18T01:21:15;98837.81;;;20.83;21.57
9415;BME280;4746;35.664;139.738;2023-11-18T01:23:45;98854.06;;;20.86;21.81
9415;BME280;4746;35.664;139.738;2023-11-18T01:26:15;98843.66;;;20.86;22.22
9415;BME280;4746;35.664;139.738;2023-11-18T01:28:43;98810.88;;;20.97;22.39
9415;BME280;4746;35.664;139.738;2023-11-18T01:31:24;98794.38;;;21.12;22.98
9415;BME280;4746;35.664;139.738;2023-11-18T01:33:51;98805.28;;;21.19;22.52
9415;BME280;4746;35.664;139.738;2023-11-18T01:36:30;98792.31;;;21.33;23.06
9415;BME280;4746;35.664;139.738;2023-11-18T01:39:07;98792.09;;;21.36;23.46
9415;BME280;4746;35.664;139.738;2023-11-18T01:42:13;98792.66;;;21.41;24.33
9415;BME280;4746;35.664;139.738;2023-11-18T01:45:06;98766.63;;;21.41;24.45
9415;BME280;4746;35.664;139.738;2023-11-18T01:51:01;98744.28;;;21.51;24.58
9415;BME280;4746;35.664;139.738;2023-11-18T01:53:52;98764.41;;;21.63;24.84
9415;BME280;4746;35.664;139.738;2023-11-18T01:56:51;98786.59;;;21.69;24.89
9415;BME280;4746;35.664;139.738;2023-11-18T01:59:36;98763.22;;;21.68;24.33
9415;BME280;4746;35.664;139.738;2023-11-18T02:02:33;98704.16;;;21.95;24.47
9415;BME280;4746;35.664;139.738;2023-11-18T02:05:09;98741.19;;;22.14;24.25
9415;BME280;4746;35.664;139.738;2023-11-18T02:07:45;98734.84;;;22.18;23.97
9415;BME280;4746;35.664;139.738;2023-11-18T02:11:01;98721.50;;;22.22;24.24
9415;BME280;4746;35.664;139.738;2023-11-18T02:14:14;98708.19;;;22.40;24.84
9415;BME280;4746;35.664;139.738;2023-11-18T02:17:22;98725.06;;;22.35;24.69
9415;BME280;4746;35.664;139.738;2023-11-18T02:20:11;98676.88;;;22.27;24.69
9415;BME280;4746;35.664;139.738;2023-11-18T02:23:03;98698.56;;;22.27;24.84
9415;BME280;4746;35.664;139.738;2023-11-18T02:26:09;98674.19;;;22.28;25.27
9415;BME280;4746;35.664;139.738;2023-11-18T02:28:52;98666.16;;;22.31;26.01
9415;BME280;4746;35.664;139.738;2023-11-18T02:31:36;98663.03;;;22.65;25.62
9415;BME280;4746;35.664;139.738;2023-11-18T02:34:27;98669.28;;;23.01;25.33
9415;BME280;4746;35.664;139.738;2023-11-18T02:37:24;98663.53;;;23.33;25.20
9415;BME280;4746;35.664;139.738;2023-11-18T02:40:49;98642.47;;;23.60;24.70
9415;BME280;4746;35.664;139.738;2023-11-18T02:43:30;98632.97;;;23.46;24.15
9415;BME280;4746;35.664;139.738;2023-11-18T02:45:58;98655.16;;;23.28;24.62
9415;BME280;4746;35.664;139.738;2023-11-18T02:48:53;98647.75;;;23.22;24.66
9415;BME280;4746;35.664;139.738;2023-11-18T02:51:28;98647.97;;;23.19;24.84
9415;BME280;4746;35.664;139.738;2023-11-18T02:57:24;98626.59;;;23.01;25.41
9415;BME280;4746;35.664;139.738;2023-11-18T03:04:11;98621.94;;;22.54;25.99
9415;BME280;4746;35.664;139.738;2023-11-18T03:07:09;98575.88;;;22.41;26.06
9415;BME280;4746;35.664;139.738;2023-11-18T03:10:24;98579.41;;;22.40;26.50
9415;BME280;4746;35.664;139.738;2023-11-18T03:14:20;98566.28;;;22.54;26.41
9415;BME280;4746;35.664;139.738;2023-11-18T03:17:35;98550.50;;;22.68;26.08
9415;BME280;4746;35.664;139.738;2023-11-18T03:20:20;98556.38;;;22.59;25.81
9415;BME280;4746;35.664;139.738;2023-11-18T03:24:06;98550.28;;;22.46;26.59
9415;BME280;4746;35.664;139.738;2023-11-18T03:30:12;98542.94;;;22.26;26.43
9415;BME280;4746;35.664;139.738;2023-11-18T03:36:26;98548.97;;;22.14;26.61
9415;BME280;4746;35.664;139.738;2023-11-18T03:38:59;98552.50;;;22.13;26.78
9415;BME280;4746;35.664;139.738;2023-11-18T03:41:28;98572.09;;;22.06;26.62
9415;BME280;4746;35.664;139.738;2023-11-18T03:43:56;98574.81;;;22.05;26.42
9415;BME280;4746;35.664;139.738;2023-11-18T03:46:26;98502.81;;;22.02;26.55
9415;BME280;4746;35.664;139.738;2023-11-18T03:49:06;98533.03;;;21.92;26.26
9415;BME280;4746;35.664;139.738;2023-11-18T03:51:33;98532.19;;;21.92;26.30
9415;BME280;4746;35.664;139.738;2023-11-18T03:54:01;98539.91;;;21.93;26.42
9415;BME280;4746;35.664;139.738;2023-11-18T03:56:30;98526.34;;;21.88;25.80
9415;BME280;4746;35.664;139.738;2023-11-18T03:58:58;98501.50;;;21.83;25.78
9415;BME280;4746;35.664;139.738;2023-11-18T04:01:26;98548.44;;;21.83;25.55
9415;BME280;4746;35.664;139.738;2023-11-18T04:03:56;98533.56;;;21.71;24.91
9415;BME280;4746;35.664;139.738;2023-11-18T04:06:23;98553.28;;;21.49;25.16
9415;BME280;4746;35.664;139.738;2023-11-18T04:08:51;98591.34;;;21.37;24.69
9415;BME280;4746;35.664;139.738;2023-11-18T04:11:23;98612.09;;;21.11;24.21
9415;BME280;4746;35.664;139.738;2023-11-18T04:13:50;98612.09;;;20.83;24.22
9415;BME280;4746;35.664;139.738;2023-11-18T04:16:29;98464.97;;;20.62;24.61
9415;BME280;4746;35.664;139.738;2023-11-18T04:18:57;98479.28;;;20.55;24.90
9415;BME280;4746;35.664;139.738;2023-11-18T04:21:24;98515.53;;;20.44;25.06
9415;BME280;4746;35.664;139.738;2023-11-18T04:23:52;98540.03;;;20.40;24.84
9415;BME280;4746;35.664;139.738;2023-11-18T04:26:19;98511.31;;;20.28;25.21
9415;BME280;4746;35.664;139.738;2023-11-18T04:28:47;98547.28;;;20.22;25.35
9415;BME280;4746;35.664;139.738;2023-11-18T04:31:15;98527.31;;;20.07;25.73
9415;BME280;4746;35.664;139.738;2023-11-18T04:33:43;98534.56;;;20.02;25.75
9415;BME280;4746;35.664;139.738;2023-11-18T04:36:11;98543.63;;;19.95;25.74
9415;BME280;4746;35.664;139.738;2023-11-18T04:38:40;98523.16;;;19.89;25.98
9415;BME280;4746;35.664;139.738;2023-11-18T04:41:08;98534.22;;;19.92;26.09
9415;BME280;4746;35.664;139.738;2023-11-18T04:43:35;98519.13;;;19.99;26.19
9415;BME280;4746;35.664;139.738;2023-11-18T04:46:03;98467.69;;;21.81;25.47
9415;BME280;4746;35.664;139.738;2023-11-18T04:48:32;98508.53;;;24.48;22.22
9415;BME280;4746;35.664;139.738;2023-11-18T04:51:03;98511.78;;;24.28;21.91
9415;BME280;4746;35.664;139.738;2023-11-18T04:53:32;98476.22;;;23.45;22.67
9415;BME280;4746;35.664;139.738;2023-11-18T04:56:02;98503.50;;;22.93;22.58
9415;BME280;4746;35.664;139.738;2023-11-18T04:58:41;98538.50;;;22.53;23.30
9415;BME280;4746;35.664;139.738;2023-11-18T05:01:09;98509.56;;;22.31;23.69
9415;BME280;4746;35.664;139.738;2023-11-18T05:03:37;98522.47;;;22.20;23.43
9415;BME280;4746;35.664;139.738;2023-11-18T05:06:05;98530.88;;;22.75;23.33
9415;BME280;4746;35.664;139.738;2023-11-18T05:08:34;98512.03;;;24.81;20.97
9415;BME280;4746;35.664;139.738;2023-11-18T05:11:03;98505.69;;;24.17;21.39
9415;BME280;4746;35.664;139.738;2023-11-18T05:13:33;98479.91;;;23.30;21.81
9415;BME280;4746;35.664;139.738;2023-11-18T05:16:01;98471.44;;;23.39;21.97
9415;BME280;4746;35.664;139.738;2023-11-18T05:18:30;98480.97;;;23.27;22.23
9415;BME280;4746;35.664;139.738;2023-11-18T05:21:03;98480.16;;;23.50;21.90
9415;BME280;4746;35.664;139.738;2023-11-18T05:23:34;98460.06;;;24.43;21.45
9415;BME280;4746;35.664;139.738;2023-11-18T05:26:05;98460.00;;;26.85;19.68
9415;BME280;4746;35.664;139.738;2023-11-18T05:28:33;98497.72;;;27.92;18.15
9415;BME280;4746;35.664;139.738;2023-11-18T05:31:01;98467.25;;;26.42;19.27
9415;BME280;4746;35.664;139.738;2023-11-18T05:33:29;98411.97;;;26.23;19.62
9415;BME280;4746;35.664;139.738;2023-11-18T05:35:58;98427.63;;;29.19;18.09
9415;BME280;4746;35.664;139.738;2023-11-18T05:38:28;98487.16;;;30.10;16.85
9415;BME280;4746;35.664;139.738;2023-11-18T05:41:00;98448.19;;;29.42;16.45
9415;BME280;4746;35.664;139.738;2023-11-18T05:43:32;98476.16;;;29.08;16.55
9415;BME280;4746;35.664;139.738;2023-11-18T05:46:11;98466.03;;;27.54;17.74
9415;BME280;4746;35.664;139.738;2023-11-18T05:48:45;98456.84;;;27.21;17.96
9415;BME280;4746;35.664;139.738;2023-11-18T05:51:18;98469.56;;;27.83;17.52
9415;BME280;4746;35.664;139.738;2023-11-18T05:53:45;98477.53;;;28.67;15.68
9415;BME280;4746;35.664;139.738;2023-11-18T05:56:15;98460.69;;;27.65;16.36
9415;BME280;4746;35.664;139.738;2023-11-18T05:58:46;98458.06;;;28.12;15.83
9415;BME280;4746;35.664;139.738;2023-11-18T06:01:14;98439.25;;;29.87;15.03
9415;BME280;4746;35.664;139.738;2023-11-18T06:03:44;98438.09;;;30.75;14.10
9415;BME280;4746;35.664;139.738;2023-11-18T06:06:14;98442.03;;;30.71;14.11
9415;BME280;4746;35.664;139.738;2023-11-18T06:08:43;98452.22;;;30.58;14.20
9415;BME280;4746;35.664;139.738;2023-11-18T06:11:15;98459.69;;;31.86;13.12
9415;BME280;4746;35.664;139.738;2023-11-18T06:13:48;98456.06;;;32.59;13.10
9415;BME280;4746;35.664;139.738;2023-11-18T06:16:17;98420.97;;;32.25;11.73
9415;BME280;4746;35.664;139.738;2023-11-18T06:18:56;98429.91;;;31.35;12.40
9415;BME280;4746;35.664;139.738;2023-11-18T06:21:26;98430.56;;;31.21;12.09
9415;BME280;4746;35.664;139.738;2023-11-18T06:24:02;98411.81;;;31.07;12.70
9415;BME280;4746;35.664;139.738;2023-11-18T06:26:33;98420.06;;;31.04;11.55
9415;BME280;4746;35.664;139.738;2023-11-18T06:29:04;98432.22;;;30.89;12.00
9415;BME280;4746;35.664;139.738;2023-11-18T06:31:33;98431.00;;;31.09;12.27
9415;BME280;4746;35.664;139.738;2023-11-18T06:34:00;98457.25;;;31.36;11.84
9415;BME280;4746;35.664;139.738;2023-11-18T06:36:30;98465.75;;;30.89;12.22
9415;BME280;4746;35.664;139.738;2023-11-18T06:38:57;98480.00;;;30.62;12.43
9415;BME280;4746;35.664;139.738;2023-11-18T06:41:25;98498.81;;;30.17;12.47
9415;BME280;4746;35.664;139.738;2023-11-18T06:44:00;98508.25;;;30.02;12.71
9415;BME280;4746;35.664;139.738;2023-11-18T06:46:36;98480.63;;;29.52;13.51
9415;BME280;4746;35.664;139.738;2023-11-18T06:49:07;98494.38;;;27.81;13.95
9415;BME280;4746;35.664;139.738;2023-11-18T06:51:35;98493.72;;;25.78;15.25
9415;BME280;4746;35.664;139.738;2023-11-18T06:54:05;98501.44;;;24.38;15.66
9415;BME280;4746;35.664;139.738;2023-11-18T06:56:41;98505.59;;;23.48;15.88
9415;BME280;4746;35.664;139.738;2023-11-18T06:59:15;98537.78;;;22.63;16.37
9415;BME280;4746;35.664;139.738;2023-11-18T07:01:44;98530.78;;;22.00;16.42
9415;BME280;4746;35.664;139.738;2023-11-18T07:04:12;98533.91;;;21.53;16.79
9415;BME280;4746;35.664;139.738;2023-11-18T07:06:41;98541.06;;;21.09;17.39
9415;BME280;4746;35.664;139.738;2023-11-18T07:09:10;98555.63;;;20.84;16.76
9415;BME280;4746;35.664;139.738;2023-11-18T07:11:44;98559.22;;;20.53;16.63
9415;BME280;4746;35.664;139.738;2023-11-18T07:14:14;98551.09;;;20.30;17.22
9415;BME280;4746;35.664;139.738;2023-11-18T07:16:42;98563.22;;;20.16;17.43
9415;BME280;4746;35.664;139.738;2023-11-18T07:19:11;98564.94;;;20.01;17.55
9415;BME280;4746;35.664;139.738;2023-11-18T07:21:47;98580.00;;;19.79;16.95
9415;BME280;4746;35.664;139.738;2023-11-18T07:24:16;98558.56;;;19.60;16.58
9415;BME280;4746;35.664;139.738;2023-11-18T07:26:47;98585.31;;;19.47;16.04
9415;BME280;4746;35.664;139.738;2023-11-18T07:29:17;98550.13;;;19.26;16.07
9415;BME280;4746;35.664;139.738;2023-11-18T07:31:45;98582.16;;;19.10;15.95
9415;BME280;4746;35.664;139.738;2023-11-18T07:34:12;98609.75;;;18.95;15.77
9415;BME280;4746;35.664;139.738;2023-11-18T07:36:40;98606.34;;;18.78;16.32
9415;BME280;4746;35.664;139.738;2023-11-18T07:39:07;98591.47;;;18.65;15.99
9415;BME280;4746;35.664;139.738;2023-11-18T07:41:43;98599.72;;;18.56;16.12
9415;BME280;4746;35.664;139.738;2023-11-18T07:44:11;98621.09;;;18.44;16.66
9415;BME280;4746;35.664;139.738;2023-11-18T07:46:39;98655.41;;;18.32;16.61
9415;BME280;4746;35.664;139.738;2023-11-18T07:49:09;98662.78;;;18.22;17.05
9415;BME280;4746;35.664;139.738;2023-11-18T07:51:38;98657.88;;;18.16;17.61
9415;BME280;4746;35.664;139.738;2023-11-18T07:54:07;98674.69;;;18.08;18.00
9415;BME280;4746;35.664;139.738;2023-11-18T07:56:36;98697.53;;;18.00;18.07
9415;BME280;4746;35.664;139.738;2023-11-18T07:59:04;98695.31;;;17.93;18.17
9415;BME280;4746;35.664;139.738;2023-11-18T08:01:36;98720.41;;;17.92;18.99
9415;BME280;4746;35.664;139.738;2023-11-18T08:04:07;98722.13;;;17.92;19.53
9415;BME280;4746;35.664;139.738;2023-11-18T08:06:35;98741.50;;;17.85;19.11
9415;BME280;4746;35.664;139.738;2023-11-18T08:09:03;98738.31;;;17.78;19.68
9415;BME280;4746;35.664;139.738;2023-11-18T08:11:30;98742.16;;;17.70;20.23
9415;BME280;4746;35.664;139.738;2023-11-18T08:14:00;98742.22;;;17.68;19.99
9415;BME280;4746;35.664;139.738;2023-11-18T08:16:29;98768.13;;;17.68;20.43
9415;BME280;4746;35.664;139.738;2023-11-18T08:18:57;98756.00;;;17.69;20.46
9415;BME280;4746;35.664;139.738;2023-11-18T08:21:24;98782.00;;;17.67;20.47
9415;BME280;4746;35.664;139.738;2023-11-18T08:23:53;98788.97;;;17.65;20.08
9415;BME280;4746;35.664;139.738;2023-11-18T08:26:20;98796.13;;;17.60;19.90
9415;BME280;4746;35.664;139.738;2023-11-18T08:28:48;98805.19;;;17.50;19.95
9415;BME280;4746;35.664;139.738;2023-11-18T08:31:16;98815.81;;;17.44;19.67
9415;BME280;4746;35.664;139.738;2023-11-18T08:33:44;98819.31;;;17.43;19.48
9415;BME280;4746;35.664;139.738;2023-11-18T08:36:13;98812.06;;;17.32;20.12
9415;BME280;4746;35.664;139.738;2023-11-18T08:38:40;98828.72;;;17.25;20.07
9415;BME280;4746;35.664;139.738;2023-11-18T08:41:12;98841.66;;;17.26;20.11
9415;BME280;4746;35.664;139.738;2023-11-18T08:43:39;98870.16;;;17.25;20.08
9415;BME280;4746;35.664;139.738;2023-11-18T08:46:12;98860.19;;;17.16;20.10
9415;BME280;4746;35.664;139.738;2023-11-18T08:48:40;98851.88;;;17.08;19.84
9415;BME280;4746;35.664;139.738;2023-11-18T08:51:11;98841.78;;;17.02;19.78
9415;BME280;4746;35.664;139.738;2023-11-18T08:53:42;98853.25;;;16.95;19.64
9415;BME280;4746;35.664;139.738;2023-11-18T08:56:10;98855.25;;;16.88;19.84
9415;BME280;4746;35.664;139.738;2023-11-18T08:58:44;98877.75;;;16.86;19.54
9415;BME280;4746;35.664;139.738;2023-11-18T09:01:11;98875.47;;;16.79;19.83
9415;BME280;4746;35.664;139.738;2023-11-18T09:03:43;98874.66;;;16.78;19.48
9415;BME280;4746;35.664;139.738;2023-11-18T09:06:20;98885.16;;;16.74;19.62
9415;BME280;4746;35.664;139.738;2023-11-18T09:09:03;98883.66;;;16.68;19.65
9415;BME280;4746;35.664;139.738;2023-11-18T09:11:36;98884.75;;;16.63;19.88
9415;BME280;4746;35.664;139.738;2023-11-18T09:14:06;98891.69;;;16.61;20.35
9415;BME280;4746;35.664;139.738;2023-11-18T09:16:34;98894.47;;;16.57;20.00
9415;BME280;4746;35.664;139.738;2023-11-18T09:19:06;98890.16;;;16.57;20.78
9415;BME280;4746;35.664;139.738;2023-11-18T09:21:34;98880.84;;;16.53;21.71
9415;BME280;4746;35.664;139.738;2023-11-18T09:24:03;98882.63;;;16.51;21.36
9415;BME280;4746;35.664;139.738;2023-11-18T09:26:34;98895.78;;;16.45;21.62
9415;BME280;4746;35.664;139.738;2023-11-18T09:29:02;98895.03;;;16.42;21.61
9415;BME280;4746;35.664;139.738;2023-11-18T09:31:30;98877.19;;;16.36;21.76
9415;BME280;4746;35.664;139.738;2023-11-18T09:34:01;98866.38;;;16.25;21.97
9415;BME280;4746;35.664;139.738;2023-11-18T09:36:35;98867.47;;;16.18;22.42
9415;BME280;4746;35.664;139.738;2023-11-18T09:39:03;98901.25;;;16.13;22.68
9415;BME280;4746;35.664;139.738;2023-11-18T09:41:30;98921.97;;;16.12;22.50
9415;BME280;4746;35.664;139.738;2023-11-18T09:44:00;98948.72;;;16.11;22.89
9415;BME280;4746;35.664;139.738;2023-11-18T09:46:30;98969.34;;;16.12;22.88
9415;BME280;4746;35.664;139.738;2023-11-18T09:49:27;98973.56;;;16.15;22.94
9415;BME280;4746;35.664;139.738;2023-11-18T09:52:03;98995.41;;;16.06;23.11
9415;BME280;4746;35.664;139.738;2023-11-18T09:57:40;99005.75;;;16.05;23.32
9415;BME280;4746;35.664;139.738;2023-11-18T10:00:12;98999.81;;;16.03;22.92
9415;BME280;4746;35.664;139.738;2023-11-18T10:02:54;99005.19;;;15.97;23.81
9415;BME280;4746;35.664;139.738;2023-11-18T10:05:29;99025.13;;;15.94;23.51
9415;BME280;4746;35.664;139.738;2023-11-18T10:07:57;99019.28;;;15.89;23.59
9415;BME280;4746;35.664;139.738;2023-11-18T10:10:28;99035.66;;;15.88;23.54
9415;BME280;4746;35.664;139.738;2023-11-18T10:13:04;99036.59;;;15.85;23.75
9415;BME280;4746;35.664;139.738;2023-11-18T10:15:35;99028.16;;;15.80;23.78
9415;BME280;4746;35.664;139.738;2023-11-18T10:18:04;99065.16;;;15.81;24.10
9415;BME280;4746;35.664;139.738;2023-11-18T10:23:09;99083.50;;;15.73;24.18
9415;BME280;4746;35.664;139.738;2023-11-18T10:25:45;99079.41;;;15.66;24.48
9415;BME280;4746;35.664;139.738;2023-11-18T10:28:35;99090.88;;;15.58;24.41
9415;BME280;4746;35.664;139.738;2023-11-18T10:31:07;99064.63;;;15.44;24.70
9415;BME280;4746;35.664;139.738;2023-11-18T10:33:39;99070.84;;;15.38;24.87
9415;BME280;4746;35.664;139.738;2023-11-18T10:36:23;99077.13;;;15.30;24.76
9415;BME280;4746;35.664;139.738;2023-11-18T10:38:52;99070.47;;;15.20;25.39
9415;BME280;4746;35.664;139.738;2023-11-18T10:41:23;99074.06;;;15.16;25.03
9415;BME280;4746;35.664;139.738;2023-11-18T10:44:06;99089.47;;;15.19;25.06
9415;BME280;4746;35.664;139.738;2023-11-18T10:46:34;99085.38;;;15.12;25.38
9415;BME280;4746;35.664;139.738;2023-11-18T10:49:03;99094.03;;;15.10;25.32
9415;BME280;4746;35.664;139.738;2023-11-18T10:51:37;99106.25;;;15.03;25.34
9415;BME280;4746;35.664;139.738;2023-11-18T10:54:07;99112.28;;;15.02;25.56
9415;BME280;4746;35.664;139.738;2023-11-18T10:56:51;99107.13;;;15.04;25.26
9415;BME280;4746;35.664;139.738;2023-11-18T10:59:23;99113.28;;;14.98;25.65
9415;BME280;4746;35.664;139.738;2023-11-18T11:01:52;99109.81;;;14.99;25.58
9415;BME280;4746;35.664;139.738;2023-11-18T11:04:19;99120.19;;;14.98;25.54
9415;BME280;4746;35.664;139.738;2023-11-18T11:06:51;99144.34;;;14.95;25.67
9415;BME280;4746;35.664;139.738;2023-11-18T11:09:25;99136.66;;;14.92;25.50
9415;BME280;4746;35.664;139.738;2023-11-18T11:11:57;99151.31;;;14.90;25.69
9415;BME280;4746;35.664;139.738;2023-11-18T11:14:37;99157.28;;;14.92;25.30
9415;BME280;4746;35.664;139.738;2023-11-18T11:17:16;99157.41;;;14.89;25.40
9415;BME280;4746;35.664;139.738;2023-11-18T11:20:05;99184.84;;;14.90;25.63
9415;BME280;4746;35.664;139.738;2023-11-18T11:28:43;99195.50;;;14.78;25.46
9415;BME280;4746;35.664;139.738;2023-11-18T11:31:37;99211.81;;;14.79;25.41
9415;BME280;4746;35.664;139.738;2023-11-18T11:34:21;99234.16;;;14.78;25.54
9415;BME280;4746;35.664;139.738;2023-11-18T11:36:54;99228.22;;;14.76;25.87
9415;BME280;4746;35.664;139.738;2023-11-18T11:39:23;99229.97;;;14.74;25.69
9415;BME280;4746;35.664;139.738;2023-11-18T11:41:59;99251.47;;;14.75;25.37
9415;BME280;4746;35.664;139.738;2023-11-18T11:44:28;99242.09;;;14.72;25.65
9415;BME280;4746;35.664;139.738;2023-11-18T11:47:01;99248.84;;;14.76;25.79
9415;BME280;4746;35.664;139.738;2023-11-18T11:49:44;99249.53;;;14.83;25.88
9415;BME280;4746;35.664;139.738;2023-11-18T11:52:23;99259.66;;;14.90;25.77
9415;BME280;4746;35.664;139.738;2023-11-18T11:55:15;99267.31;;;14.93;26.00
9415;BME280;4746;35.664;139.738;2023-11-18T11:57:51;99256.91;;;14.96;25.57
9415;BME280;4746;35.664;139.738;2023-11-18T12:00:25;99268.94;;;14.97;25.46
9415;BME280;4746;35.664;139.738;2023-11-18T12:03:04;99271.56;;;14.96;25.74
9415;BME280;4746;35.664;139.738;2023-11-18T12:05:41;99260.41;;;14.94;25.35
9415;BME280;4746;35.664;139.738;2023-11-18T12:08:10;99262.06;;;14.96;25.70
9415;BME280;4746;35.664;139.738;2023-11-18T12:10:40;99271.44;;;15.00;25.77
9415;BME280;4746;35.664;139.738;2023-11-18T12:13:11;99278.38;;;14.98;25.22
9415;BME280;4746;35.664;139.738;2023-11-18T12:15:55;99264.66;;;14.96;25.31
9415;BME280;4746;35.664;139.738;2023-11-18T12:18:31;99267.31;;;14.93;25.15
9415;BME280;4746;35.664;139.738;2023-11-18T12:21:01;99266.34;;;14.97;25.22
9415;BME280;4746;35.664;139.738;2023-11-18T12:23:30;99268.16;;;14.94;25.13
9415;BME280;4746;35.664;139.738;2023-11-18T12:26:01;99261.47;;;14.87;25.62
9415;BME280;4746;35.664;139.738;2023-11-18T12:28:33;99250.31;;;14.86;25.25
9415;BME280;4746;35.664;139.738;2023-11-18T12:31:12;99254.69;;;14.83;25.40
9415;BME280;4746;35.664;139.738;2023-11-18T12:34:02;99258.28;;;14.77;25.29
9415;BME280;4746;35.664;139.738;2023-11-18T12:41:41;99234.25;;;14.75;25.55
9415;BME280;4746;35.664;139.738;2023-11-18T12:47:24;99231.53;;;14.81;25.18
9415;BME280;4746;35.664;139.738;2023-11-18T12:49:55;99219.56;;;14.79;25.38
9415;BME280;4746;35.664;139.738;2023-11-18T12:52:23;99226.44;;;14.78;25.29
9415;BME280;4746;35.664;139.738;2023-11-18T12:54:54;99229.94;;;14.76;25.39
9415;BME280;4746;35.664;139.738;2023-11-18T12:57:30;99243.66;;;14.78;25.47
9415;BME280;4746;35.664;139.738;2023-11-18T13:00:06;99247.06;;;14.78;25.37
9415;BME280;4746;35.664;139.738;2023-11-18T13:02:42;99245.34;;;14.79;25.10
9415;BME280;4746;35.664;139.738;2023-11-18T13:05:10;99251.38;;;14.78;25.20
9415;BME280;4746;35.664;139.738;2023-11-18T13:07:41;99265.16;;;14.77;25.58
9415;BME280;4746;35.664;139.738;2023-11-18T13:10:11;99262.72;;;14.72;25.71
9415;BME280;4746;35.664;139.738;2023-11-18T13:12:43;99258.50;;;14.68;25.76
9415;BME280;4746;35.664;139.738;2023-11-18T13:15:12;99269.00;;;14.61;26.10
9415;BME280;4746;35.664;139.738;2023-11-18T13:17:40;99259.63;;;14.58;26.49
9415;BME280;4746;35.664;139.738;2023-11-18T13:20:16;99267.53;;;14.51;26.86
9415;BME280;4746;35.664;139.738;2023-11-18T13:22:46;99249.84;;;14.36;27.40
9415;BME280;4746;35.664;139.738;2023-11-18T13:25:13;99248.28;;;14.31;27.95
9415;BME280;4746;35.664;139.738;2023-11-18T13:27:41;99251.00;;;14.25;28.71
9415;BME280;4746;35.664;139.738;2023-11-18T13:30:09;99238.16;;;14.22;29.04
9415;BME280;4746;35.664;139.738;2023-11-18T13:32:44;99252.00;;;14.18;29.21
9415;BME280;4746;35.664;139.738;2023-11-18T13:35:12;99235.81;;;14.11;29.79
9415;BME280;4746;35.664;139.738;2023-11-18T13:37:49;99230.72;;;14.08;29.77
9415;BME280;4746;35.664;139.738;2023-11-18T13:40:17;99230.81;;;14.04;30.00
9415;BME280;4746;35.664;139.738;2023-11-18T13:42:48;99248.94;;;13.99;30.58
9415;BME280;4746;35.664;139.738;2023-11-18T13:45:15;99253.31;;;13.97;30.42
9415;BME280;4746;35.664;139.738;2023-11-18T13:47:55;99254.19;;;13.96;31.26
9415;BME280;4746;35.664;139.738;2023-11-18T13:50:28;99244.06;;;13.89;31.24
9415;BME280;4746;35.664;139.738;2023-11-18T13:52:57;99256.84;;;13.92;31.70
9415;BME280;4746;35.664;139.738;2023-11-18T13:55:25;99268.09;;;13.88;31.86
9415;BME280;4746;35.664;139.738;2023-11-18T13:57:58;99271.59;;;13.86;31.98
9415;BME280;4746;35.664;139.738;2023-11-18T14:00:27;99263.94;;;13.81;31.98
9415;BME280;4746;35.664;139.738;2023-11-18T14:02:58;99282.06;;;13.78;32.65
9415;BME280;4746;35.664;139.738;2023-11-18T14:05:26;99265.81;;;13.75;33.04
9415;BME280;4746;35.664;139.738;2023-11-18T14:07:58;99281.28;;;13.75;33.17
9415;BME280;4746;35.664;139.738;2023-11-18T14:10:27;99283.94;;;13.70;33.55
9415;BME280;4746;35.664;139.738;2023-11-18T14:13:02;99314.81;;;13.70;34.19